Yvonne K. — PBLX — position and weather

sailwx.info

Track history (hours):
 
Tides and Currents Weather Stations Pressure Air Temp Water Temp Dewpoint Dewpoint Depression Visibility Wind Speed Wind Dir Waves Ship Positions

Yvonne K.

Last reported at 2015-Mar-03 00:29 UTC. Time now 2015-Mar-04 08:35 UTC.
Position N 39°05' W 009°50'.

Length 90 m; draft 5.6 m.

Type: Cargo ship. MMSI: 244948000.

Date/timePositionNaut miles runAvg speedWind from/ knotsBaromVisibWave heightAir tempDewpointWater temp
2015-Mar-03 00:29N 39°05' W 009°50'8 8.3
2015-Mar-02 23:33N 38°57' W 009°50'9 8.5
2015-Mar-02 22:26N 38°48' W 009°50'7 8.3
2015-Mar-02 21:32N 38°40' W 009°49'8 8.2
2015-Mar-02 20:32N 38°32' W 009°46'8 7.9
2015-Mar-02 19:33N 38°25' W 009°45'8 8.3
2015-Mar-02 18:33N 38°17' W 009°42'8 8.2
2015-Mar-02 17:33N 38°09' W 009°40'8 8.2
2015-Mar-02 16:30N 38°00' W 009°38'9 8.0
2015-Mar-02 15:22N 37°51' W 009°35'6 7.8
2015-Mar-02 14:33N 37°45' W 009°33'8 7.8
2015-Mar-02 13:33N 37°38' W 009°31'8 7.8
2015-Mar-02 12:33N 37°30' W 009°29'8 7.8
2015-Mar-02 11:32N 37°22' W 009°27'25 7.8
2015-Mar-02 08:19N 36°58' W 009°20'197 8.2
2015-Mar-01 08:11N 36°01' W 005°25'4 6.5
2015-Mar-01 07:33N 36°02' W 005°20'7 7.4
2015-Mar-01 06:33N 36°07' W 005°13'  
2015-Feb-25 18:30N 39°48' E 008°20'  
2015-Feb-21 05:14N 39°50' E 008°19'8 8.0
2015-Feb-21 04:18N 39°52' E 008°09'  
Track history (hours):
 
Tides and Currents Weather Stations Pressure Air Temp Water Temp Dewpoint Dewpoint Depression Visibility Wind Speed Wind Dir Waves Ship Positions

Yvonne K.

Last reported at 2015-Mar-03 00:29 UTC. Time now 2015-Mar-04 08:35 UTC.
Position N 39°05' W 009°50'.

Length 90 m; draft 5.6 m.

Type: Cargo ship. MMSI: 244948000.

Date/timePositionNaut miles runAvg speedWind from/ knotsBaromVisibWave heightAir tempDewpointWater temp
2015-Mar-03 00:29N 39°05' W 009°50'8 8.3
2015-Mar-02 23:33N 38°57' W 009°50'9 8.5
2015-Mar-02 22:26N 38°48' W 009°50'7 8.3
2015-Mar-02 21:32N 38°40' W 009°49'8 8.2
2015-Mar-02 20:32N 38°32' W 009°46'8 7.9
2015-Mar-02 19:33N 38°25' W 009°45'8 8.3
2015-Mar-02 18:33N 38°17' W 009°42'8 8.2
2015-Mar-02 17:33N 38°09' W 009°40'8 8.2
2015-Mar-02 16:30N 38°00' W 009°38'9 8.0
2015-Mar-02 15:22N 37°51' W 009°35'6 7.8
2015-Mar-02 14:33N 37°45' W 009°33'8 7.8
2015-Mar-02 13:33N 37°38' W 009°31'8 7.8
2015-Mar-02 12:33N 37°30' W 009°29'8 7.8
2015-Mar-02 11:32N 37°22' W 009°27'25 7.8
2015-Mar-02 08:19N 36°58' W 009°20'197 8.2
2015-Mar-01 08:11N 36°01' W 005°25'4 6.5
2015-Mar-01 07:33N 36°02' W 005°20'7 7.4
2015-Mar-01 06:33N 36°07' W 005°13'  
2015-Feb-25 18:30N 39°48' E 008°20'  
2015-Feb-21 05:14N 39°50' E 008°19'8 8.0
2015-Feb-21 04:18N 39°52' E 008°09'  

Dump ship's entire track history